Terminal Aerodrome Forecast
Issued by NWS

Home | Current Version | Previous Version | Graphics & Text | Print | Product List | Glossary On
Versions: 1 2 3 4 5 6 7 8 9 10 11 12 13 14 15 16 17 18 19 20
000
FTUS43 KABR 021120
TAFPIR
TAF
KPIR 021120Z 0212/0312 09004KT 3SM BR VCTS SCT005 BKN011 OVC090CB
      TEMPO 0212/0215 VRB20G30KT 4SM -TSRA SCT011 BKN070CB OVC090
     FM021700 33009KT P6SM VCSH OVC050
     FM030200 VRB03KT P6SM BKN250=

USA.gov is the U.S. government's official web portal to all federal, state and local government web resources and services.